createdAt,value
2023-01-30T00:00:56.825Z,82.94
2023-01-30T00:03:32.380Z,81.16
2023-01-30T00:06:00.480Z,82.52
2023-01-30T00:08:36.308Z,82.91
2023-01-30T00:11:15.603Z,84.98
2023-01-30T00:13:51.330Z,82.86
2023-01-30T00:16:29.054Z,82.75
2023-01-30T00:19:05.843Z,83.21
2023-01-30T00:21:41.351Z,81.36
2023-01-30T00:24:09.273Z,82.34
2023-01-30T00:26:45.240Z,83.45
2023-01-30T00:29:29.844Z,82.62
2023-01-30T00:32:08.889Z,83.00
2023-01-30T00:35:23.038Z,84.52
2023-01-30T00:38:12.702Z,81.37
2023-01-30T00:40:57.528Z,83.98
2023-01-30T00:43:57.312Z,83.90
2023-01-30T00:46:52.262Z,83.63
2023-01-30T00:49:25.922Z,82.11
2023-01-30T00:54:54.859Z,83.29
2023-01-30T00:57:22.351Z,82.78
2023-01-30T01:00:00.363Z,79.54
2023-01-30T01:02:31.155Z,80.10
2023-01-30T01:04:59.223Z,77.98
2023-01-30T01:07:31.954Z,78.41
2023-01-30T01:10:03.646Z,76.03
2023-01-30T01:12:31.202Z,76.60
2023-01-30T01:15:01.933Z,77.14
2023-01-30T01:17:32.977Z,76.61
2023-01-30T01:20:32.703Z,76.18
2023-01-30T01:23:00.483Z,76.91
2023-01-30T01:25:27.678Z,76.78
2023-01-30T01:27:56.791Z,76.11
2023-01-30T01:30:27.366Z,73.41
2023-01-30T01:33:17.422Z,73.26
2023-01-30T01:35:52.332Z,74.65
2023-01-30T01:38:25.545Z,74.88
2023-01-30T01:44:09.463Z,72.33
2023-01-30T01:46:49.222Z,73.26
2023-01-30T01:49:32.188Z,72.89
2023-01-30T01:52:16.687Z,74.13
2023-01-30T01:55:25.956Z,71.55
2023-01-30T01:58:25.441Z,71.57
2023-01-30T02:01:12.359Z,71.46
2023-01-30T02:03:46.665Z,70.74
2023-01-30T02:06:32.886Z,70.96
2023-01-30T02:09:09.481Z,73.08
2023-01-30T02:12:06.942Z,74.72
2023-01-30T02:14:58.970Z,75.52
2023-01-30T02:17:37.798Z,74.30
2023-01-30T02:21:10.707Z,73.05
2023-01-30T02:24:20.405Z,75.29
2023-01-30T02:27:26.820Z,73.56
2023-01-30T02:31:07.056Z,73.92
2023-01-30T02:34:20.032Z,72.18
2023-01-30T02:37:25.346Z,73.16
2023-01-30T02:40:40.113Z,74.97
2023-01-30T02:44:04.197Z,73.39
2023-01-30T02:47:21.815Z,70.69
2023-01-30T02:50:33.140Z,72.98
2023-01-30T02:53:06.621Z,73.57
2023-01-30T02:55:46.998Z,72.66
2023-01-30T02:58:42.282Z,73.14
2023-01-30T03:02:08.185Z,74.96
2023-01-30T03:05:04.405Z,75.92
2023-01-30T03:08:12.269Z,73.99
2023-01-30T03:11:06.204Z,74.05
2023-01-30T03:14:19.970Z,72.83
2023-01-30T03:20:08.090Z,75.04
2023-01-30T03:22:59.564Z,75.14
2023-01-30T03:25:37.733Z,74.81
2023-01-30T03:28:13.008Z,72.85
2023-01-30T03:31:18.972Z,72.04
2023-01-30T03:37:01.676Z,72.11
2023-01-30T03:39:29.372Z,70.25
2023-01-30T03:49:06.732Z,74.07
2023-01-30T03:51:47.979Z,71.58
2023-01-30T03:54:28.580Z,72.02
2023-01-30T03:57:19.172Z,71.39
2023-01-30T03:59:52.333Z,72.73
2023-01-30T04:02:28.583Z,72.70
2023-01-30T04:05:09.255Z,70.68
2023-01-30T04:07:37.746Z,74.95
2023-01-30T04:13:03.207Z,70.90
2023-01-30T04:15:42.169Z,72.33
2023-01-30T04:18:47.885Z,71.30
2023-01-30T04:21:51.782Z,72.17
2023-01-30T04:24:38.907Z,72.21
2023-01-30T04:30:50.346Z,71.47
2023-01-30T04:34:04.571Z,72.69
2023-01-30T04:36:35.800Z,73.44
2023-01-30T04:39:28.862Z,76.64
2023-01-30T04:46:00.976Z,82.27
2023-01-30T04:55:13.178Z,80.43
2023-01-30T05:04:48.099Z,84.20
2023-01-30T05:11:01.284Z,85.52
2023-01-30T05:13:57.381Z,88.07
2023-01-30T05:16:52.650Z,91.47
2023-01-30T05:19:54.312Z,90.77
2023-01-30T05:22:51.372Z,93.17
2023-01-30T05:25:39.165Z,93.25
2023-01-30T05:31:43.420Z,94.75
2023-01-30T05:34:54.644Z,94.64
2023-01-30T05:41:06.339Z,94.31
2023-01-30T05:44:06.094Z,95.67
2023-01-30T05:53:41.280Z,99.70
2023-01-30T05:56:50.481Z,99.98
2023-01-30T06:03:23.547Z,99.68
2023-01-30T06:15:53.086Z,100.00
2023-01-30T06:18:24.361Z,100.00
2023-01-30T06:21:04.803Z,100.00
2023-01-30T06:23:54.805Z,99.96
2023-01-30T06:30:00.179Z,100.00
2023-01-30T06:35:51.181Z,100.00
2023-01-30T06:38:23.303Z,100.00
2023-01-30T06:41:20.605Z,99.21
2023-01-30T06:44:11.859Z,99.82
2023-01-30T06:46:49.230Z,98.09
2023-01-30T06:49:26.864Z,97.36
2023-01-30T06:52:05.047Z,95.24
2023-01-30T06:58:17.414Z,96.72
2023-01-30T07:00:53.079Z,95.70
2023-01-30T07:03:21.647Z,94.25
2023-01-30T07:09:13.395Z,98.51
2023-01-30T07:11:47.372Z,97.49
2023-01-30T07:14:14.558Z,96.35
2023-01-30T07:16:49.931Z,97.91
2023-01-30T07:19:22.420Z,98.96
2023-01-30T07:22:09.243Z,99.94
2023-01-30T07:24:39.786Z,99.92
2023-01-30T07:27:11.745Z,100.00
2023-01-30T07:36:58.193Z,100.00
2023-01-30T07:39:40.918Z,99.88
2023-01-30T07:42:14.200Z,100.00
2023-01-30T07:48:26.260Z,100.00
2023-01-30T07:57:08.030Z,100.00
2023-01-30T07:59:55.052Z,100.00
2023-01-30T08:02:38.971Z,100.00
2023-01-30T08:05:25.114Z,100.00
2023-01-30T08:29:43.265Z,99.95
2023-01-30T08:32:11.139Z,100.00
2023-01-30T08:51:25.732Z,99.71
2023-01-30T09:06:17.223Z,99.21
2023-01-30T09:09:06.457Z,99.55
2023-01-30T09:15:23.885Z,99.98
2023-01-30T09:18:19.925Z,99.56
2023-01-30T09:21:15.410Z,99.94
2023-01-30T09:23:46.722Z,99.92
2023-01-30T09:26:15.506Z,99.71
2023-01-30T09:28:42.661Z,98.78
2023-01-30T09:31:10.204Z,99.79
2023-01-30T09:33:37.943Z,99.92
2023-01-30T09:36:05.514Z,99.48
2023-01-30T09:38:32.834Z,98.49
2023-01-30T09:41:00.005Z,97.93
2023-01-30T09:43:38.295Z,99.38
2023-01-30T09:46:11.288Z,96.63
2023-01-30T09:48:59.397Z,93.72
2023-01-30T09:51:39.908Z,95.59
2023-01-30T09:54:36.172Z,96.25
2023-01-30T09:57:24.535Z,95.13
2023-01-30T10:00:32.065Z,94.70
2023-01-30T10:03:08.550Z,96.19
2023-01-30T10:05:44.854Z,99.04
2023-01-30T10:08:24.477Z,99.43
2023-01-30T10:14:36.249Z,100.00
2023-01-30T10:17:34.114Z,99.93
2023-01-30T13:10:41.724Z,92.65
2023-01-30T13:17:34.807Z,91.03
2023-01-30T13:21:10.068Z,82.92
2023-01-30T13:24:27.175Z,78.51
2023-01-30T13:27:21.301Z,83.21
2023-01-30T13:29:51.926Z,84.44
2023-01-30T13:33:01.187Z,82.52
2023-01-30T13:35:43.313Z,86.60
2023-01-30T13:38:20.956Z,86.09
2023-01-30T13:40:57.076Z,85.87
2023-01-30T13:44:22.233Z,85.30
2023-01-30T13:47:20.697Z,87.16
2023-01-30T13:50:24.197Z,86.15
2023-01-30T13:53:32.917Z,88.14
2023-01-30T13:57:10.079Z,88.77
2023-01-30T14:00:04.644Z,90.46
2023-01-30T14:03:24.071Z,87.44
2023-01-30T14:05:51.589Z,88.07
2023-01-30T14:08:27.434Z,87.29
2023-01-30T14:10:57.150Z,89.99
2023-01-30T14:13:26.178Z,88.11
2023-01-30T14:15:57.284Z,87.22
2023-01-30T14:18:50.652Z,87.51
2023-01-30T14:21:29.476Z,88.64
2023-01-30T14:24:04.646Z,87.50
2023-01-30T14:27:23.023Z,89.09
2023-01-30T14:29:54.920Z,91.10
2023-01-30T14:32:22.152Z,90.77
2023-01-30T14:35:16.805Z,90.75
2023-01-30T14:37:53.199Z,89.89
2023-01-30T14:40:23.242Z,89.09
2023-01-30T14:43:14.329Z,88.73
2023-01-30T14:45:51.082Z,89.86
2023-01-30T14:48:41.351Z,89.28
2023-01-30T14:51:21.084Z,89.45
2023-01-30T14:53:53.728Z,87.56
2023-01-30T14:56:40.665Z,90.21
2023-01-30T14:59:29.896Z,88.26
2023-01-30T15:02:12.055Z,88.18
2023-01-30T15:04:56.234Z,85.63
2023-01-30T15:07:28.324Z,86.01
2023-01-30T15:10:03.647Z,87.71
2023-01-30T15:12:46.426Z,86.99
2023-01-30T15:15:56.284Z,88.91
2023-01-30T15:19:07.331Z,89.78
2023-01-30T15:22:12.016Z,90.79
2023-01-30T15:25:36.356Z,92.44
2023-01-30T15:28:48.852Z,90.19
2023-01-30T15:31:37.779Z,88.37
2023-01-30T15:34:47.171Z,88.09
2023-01-30T15:37:41.440Z,87.22
2023-01-30T15:40:28.532Z,87.56
2023-01-30T15:43:00.114Z,85.38
2023-01-30T15:46:31.289Z,86.68
2023-01-30T15:56:50.031Z,92.37
2023-01-30T15:59:41.585Z,90.49
2023-01-30T16:02:50.710Z,88.25
2023-01-30T16:05:26.943Z,85.16
2023-01-30T16:07:56.964Z,86.45
2023-01-30T16:10:36.905Z,84.96
2023-01-30T16:13:05.853Z,84.35
2023-01-30T16:15:57.707Z,86.17
2023-01-30T16:18:34.333Z,86.40
2023-01-30T16:21:29.942Z,84.22
2023-01-30T17:18:31.601Z,99.44
2023-01-30T17:20:21.545Z,98.49
2023-01-30T17:23:17.007Z,96.41
2023-01-30T17:25:54.751Z,94.97
2023-01-30T17:28:42.002Z,93.20
2023-01-30T17:31:12.753Z,95.27
2023-01-30T17:33:41.266Z,92.44
2023-01-30T17:36:25.347Z,93.68
2023-01-30T17:38:52.769Z,94.49
2023-01-30T17:41:29.740Z,93.89
2023-01-30T17:43:58.335Z,94.51
2023-01-30T17:46:39.767Z,94.13
2023-01-30T17:49:13.705Z,94.15
2023-01-30T17:51:44.940Z,93.69
2023-01-30T17:54:19.228Z,91.42
2023-01-30T17:57:01.089Z,90.05
2023-01-30T17:59:32.727Z,89.82
2023-01-30T18:02:00.923Z,91.98
2023-01-30T18:04:37.330Z,91.51
2023-01-30T18:07:13.561Z,90.33
2023-01-30T18:09:44.966Z,91.44
2023-01-30T18:12:15.747Z,91.53
2023-01-30T18:14:44.521Z,91.66
2023-01-30T18:17:13.425Z,91.33
2023-01-30T18:19:40.935Z,90.87
2023-01-30T18:22:11.431Z,90.78
2023-01-30T18:24:43.267Z,89.62
2023-01-30T18:27:12.872Z,88.95
2023-01-30T18:29:40.025Z,87.78
2023-01-30T18:32:08.862Z,88.37
2023-01-30T18:34:40.335Z,89.41
2023-01-30T18:37:09.585Z,88.47
2023-01-30T18:39:37.858Z,87.88
2023-01-30T18:42:07.705Z,88.11
2023-01-30T18:44:36.276Z,87.26
2023-01-30T18:47:05.348Z,87.67
2023-01-30T18:49:38.825Z,85.73
2023-01-30T18:52:07.252Z,85.51
2023-01-30T18:54:37.247Z,83.91
2023-01-30T18:57:05.061Z,82.31
2023-01-30T18:59:32.480Z,85.06
2023-01-30T19:02:19.969Z,86.06
2023-01-30T19:04:48.524Z,88.80
2023-01-30T19:07:16.871Z,87.04
2023-01-30T19:09:45.754Z,89.22
2023-01-30T19:12:34.646Z,91.40
2023-01-30T19:15:07.843Z,91.14
2023-01-30T19:17:35.514Z,92.12
2023-01-30T19:20:10.795Z,93.76
2023-01-30T19:22:43.617Z,93.44
2023-01-30T19:25:13.650Z,94.87
2023-01-30T19:27:43.374Z,94.93
2023-01-30T19:30:12.702Z,95.84
2023-01-30T19:32:41.185Z,96.14
2023-01-30T19:35:09.535Z,97.43
2023-01-30T19:37:39.914Z,97.92
2023-01-30T19:43:10.398Z,100.00
2023-01-30T19:45:42.521Z,100.00
2023-01-30T19:48:14.707Z,100.00
2023-01-30T19:50:43.698Z,100.00
2023-01-30T19:53:12.528Z,100.00
2023-01-30T19:55:41.971Z,100.00
2023-01-30T19:58:10.822Z,100.00
2023-01-30T20:01:03.134Z,99.94
2023-01-30T20:03:36.387Z,100.00
2023-01-30T20:06:20.025Z,100.00
2023-01-30T20:08:49.784Z,100.00
2023-01-30T20:11:19.221Z,100.00
2023-01-30T20:13:48.727Z,100.00
2023-01-30T20:16:31.286Z,100.00
2023-01-30T20:19:04.861Z,100.00
2023-01-30T20:21:35.724Z,100.00
2023-01-30T20:24:18.860Z,100.00
2023-01-30T20:26:48.389Z,100.00
2023-01-30T20:29:21.758Z,100.00
2023-01-30T20:31:55.242Z,100.00
2023-01-30T20:34:22.625Z,100.00
2023-01-30T20:36:49.980Z,100.00
2023-01-30T20:39:22.308Z,100.00
2023-01-30T20:41:49.802Z,100.00
2023-01-30T20:44:18.146Z,100.00
2023-01-30T20:46:49.875Z,100.00
2023-01-30T20:49:19.469Z,100.00
2023-01-30T20:51:50.093Z,100.00
2023-01-30T20:54:24.341Z,100.00
2023-01-30T20:57:12.313Z,100.00
2023-01-30T20:59:43.287Z,100.00
2023-01-30T21:02:16.115Z,100.00
2023-01-30T21:04:46.241Z,100.00
2023-01-30T21:07:13.457Z,100.00
2023-01-30T21:09:41.947Z,100.00
2023-01-30T21:12:13.142Z,100.00
2023-01-30T21:14:44.102Z,100.00
2023-01-30T21:17:11.568Z,100.00
2023-01-30T21:19:41.973Z,100.00
2023-01-30T21:22:10.750Z,100.00
2023-01-30T21:24:42.083Z,100.00
2023-01-30T21:27:09.431Z,100.00
2023-01-30T21:29:56.563Z,100.00
2023-01-30T21:32:23.663Z,100.00
2023-01-30T21:34:50.803Z,100.00
2023-01-30T21:37:37.851Z,100.00
2023-01-30T21:40:24.096Z,100.00
2023-01-30T21:43:09.961Z,100.00
2023-01-30T21:45:39.088Z,100.00
2023-01-30T21:48:06.580Z,99.54
2023-01-30T21:50:38.375Z,100.00
2023-01-30T21:53:11.470Z,100.00
2023-01-30T21:55:38.946Z,99.76
2023-01-30T21:58:06.518Z,100.00
2023-01-30T22:00:36.807Z,98.85
2023-01-30T22:03:04.033Z,99.04
2023-01-30T22:05:36.568Z,99.39
2023-01-30T22:08:05.234Z,97.81
2023-01-30T22:10:32.500Z,97.43
2023-01-30T22:13:02.025Z,96.96
2023-01-30T22:15:33.335Z,95.26
2023-01-30T22:18:00.442Z,93.36
2023-01-30T22:20:28.692Z,91.53
2023-01-30T22:22:55.822Z,92.93
2023-01-30T22:25:23.674Z,94.73
2023-01-30T22:27:50.844Z,95.20
2023-01-30T22:30:18.108Z,91.91
2023-01-30T22:32:45.565Z,90.16
2023-01-30T22:35:13.821Z,89.10
2023-01-30T22:37:41.093Z,88.70
2023-01-30T22:40:09.855Z,90.36
2023-01-30T22:42:37.665Z,92.63
2023-01-30T22:45:06.230Z,89.83
2023-01-30T22:47:34.000Z,88.43
2023-01-30T22:50:14.340Z,87.44
2023-01-30T22:52:42.530Z,87.35
2023-01-30T22:55:10.824Z,87.26
2023-01-30T22:57:39.585Z,86.75
2023-01-30T23:00:20.487Z,87.04
2023-01-30T23:02:48.393Z,86.71
2023-01-30T23:05:18.375Z,85.58
2023-01-30T23:07:46.371Z,83.99
2023-01-30T23:10:17.045Z,83.52
2023-01-30T23:13:02.846Z,84.37
2023-01-30T23:15:34.797Z,84.72
2023-01-30T23:18:20.533Z,84.12
2023-01-30T23:20:47.857Z,83.59
2023-01-30T23:23:15.038Z,81.39
2023-01-30T23:25:42.536Z,80.86
2023-01-30T23:28:11.401Z,79.42
2023-01-30T23:30:40.235Z,79.12
2023-01-30T23:33:08.837Z,79.33
2023-01-30T23:35:37.769Z,79.20
2023-01-30T23:38:21.596Z,81.35
2023-01-30T23:40:49.890Z,78.91
2023-01-30T23:43:20.874Z,78.15
2023-01-30T23:45:53.683Z,77.34
2023-01-30T23:48:20.947Z,76.26
2023-01-30T23:50:48.051Z,78.09
2023-01-30T23:53:15.814Z,79.80
2023-01-30T23:55:52.703Z,79.67
2023-01-30T23:58:23.557Z,78.46
